Time;durP1;ratioP1;P1;durP2;ratioP2;P2;SDS_P1;SDS_P2;PMS_P1;PMS_P2;Temp;Humidity;BMP_temperature;BMP_pressure;BME280_temperature;BME280_humidity;BME280_pressure;Samples;Min_cycle;Max_cycle;Signal;HPM_P1;HPM_P2
2022/03/23 00:02:17;;;;;;;11.75;5.47;;;;;;;5.29;72.75;102885.31;6270659;28;20052;-82
2022/03/23 00:05:20;;;;;;;18.08;5.82;;;;;;;5.21;73.49;102883.53;6280382;28;20064;-83
2022/03/23 00:08:22;;;;;;;10.63;5.32;;;;;;;5.14;74.57;102880.06;6272618;28;20041;-84
2022/03/23 00:11:24;;;;;;;11.13;5.15;;;;;;;5.06;75.07;102882.63;6279902;28;20499;-83
2022/03/23 00:14:25;;;;;;;15.55;6.32;;;;;;;5.05;75.30;102880.88;6273072;28;20504;-82
2022/03/23 00:17:27;;;;;;;10.68;5.53;;;;;;;5.02;75.13;102878.25;6288643;28;20059;-83
2022/03/23 00:20:30;;;;;;;13.15;5.30;;;;;;;4.95;75.89;102880.81;6296655;28;20052;-83
2022/03/23 00:23:32;;;;;;;13.43;6.10;;;;;;;4.90;75.21;102872.97;6297134;28;20059;-83
2022/03/23 00:26:33;;;;;;;10.80;5.97;;;;;;;4.84;75.31;102879.03;6297159;28;20519;-84
2022/03/23 00:29:35;;;;;;;11.40;5.15;;;;;;;4.81;75.90;102875.53;6289221;28;20526;-83
2022/03/23 00:32:37;;;;;;;11.35;5.05;;;;;;;4.79;74.79;102872.06;6282383;28;20052;-83
2022/03/23 00:35:40;;;;;;;11.75;4.97;;;;;;;4.75;75.82;102879.00;6277726;28;20045;-82
2022/03/23 00:38:41;;;;;;;15.07;5.35;;;;;;;4.72;75.28;102871.16;6276494;28;20129;-84
2022/03/23 00:41:49;;;;;;;16.50;6.63;;;;;;;4.68;76.23;102876.34;6276511;28;20871;-83
2022/03/23 00:44:51;;;;;;;10.15;5.35;;;;;;;4.62;75.89;102865.91;6277146;28;20080;-83
2022/03/23 00:47:52;;;;;;;13.73;6.45;;;;;;;4.63;76.52;102875.44;6276911;28;20041;-83
2022/03/23 00:50:55;;;;;;;13.93;7.03;;;;;;;4.56;77.40;102879.78;6281991;28;20056;-83
2022/03/23 00:53:56;;;;;;;12.85;6.15;;;;;;;4.48;78.05;102876.25;6293816;28;20052;-83
2022/03/23 00:56:58;;;;;;;14.50;5.03;;;;;;;4.42;78.51;102881.41;6288117;28;20037;-83
2022/03/23 00:59:59;;;;;;;13.45;5.60;;;;;;;4.38;78.56;102874.44;6279691;28;20056;-83
2022/03/23 01:03:02;;;;;;;12.25;5.43;;;;;;;4.37;77.04;102880.53;6276498;28;20049;-83
2022/03/23 01:06:04;;;;;;;13.35;5.60;;;;;;;4.27;78.06;102877.84;6276923;28;20055;-82
2022/03/23 01:09:06;;;;;;;9.93;4.72;;;;;;;4.26;79.07;102875.22;6276295;28;20049;-84
2022/03/23 01:12:09;;;;;;;12.07;5.60;;;;;;;4.23;78.53;102877.81;6275485;28;20049;-83
2022/03/23 01:15:12;;;;;;;13.52;5.70;;;;;;;4.20;77.66;102869.97;6276405;28;20049;-83
2022/03/23 01:18:14;;;;;;;10.80;5.72;;;;;;;4.16;78.47;102878.63;6275846;28;20045;-83
2022/03/23 01:21:18;;;;;;;12.88;5.82;;;;;;;4.14;77.81;102867.34;6275693;28;20076;-84
2022/03/23 01:24:20;;;;;;;13.00;5.40;;;;;;;4.15;78.43;102866.47;6276010;28;20052;-83
2022/03/23 01:27:21;;;;;;;12.55;5.57;;;;;;;4.04;78.41;102872.47;6276304;28;20056;-83
2022/03/23 01:30:23;;;;;;;14.65;5.28;;;;;;;3.93;79.03;102865.44;6275287;28;20049;-83
2022/03/23 01:33:24;;;;;;;10.73;6.22;;;;;;;3.87;79.89;102866.25;6275849;28;20045;-83
2022/03/23 01:36:27;;;;;;;10.38;5.85;;;;;;;3.85;79.79;102861.88;6275769;28;20045;-83
2022/03/23 01:39:29;;;;;;;12.27;5.45;;;;;;;3.81;80.06;102864.50;6276036;28;20484;-83
2022/03/23 01:42:30;;;;;;;12.20;5.68;;;;;;;3.81;80.29;102869.69;6275044;28;20045;-83
2022/03/23 01:45:32;;;;;;;10.98;4.40;;;;;;;3.78;79.88;102864.44;6275830;28;20053;-83
2022/03/23 01:48:33;;;;;;;13.70;6.28;;;;;;;3.77;79.67;102872.22;6275070;28;20045;-84
2022/03/23 01:51:36;;;;;;;14.43;5.15;;;;;;;3.71;80.74;102862.63;6274481;28;20049;-83
2022/03/23 01:54:39;;;;;;;13.35;5.55;;;;;;;3.64;82.08;102866.06;6275622;28;20049;-83
2022/03/23 01:57:44;;;;;;;11.88;5.22;;;;;;;3.55;82.64;102865.97;6275061;28;20067;-83
2022/03/23 02:00:46;;;;;;;13.23;5.65;;;;;;;3.51;83.81;102862.47;6274220;28;20436;-83
2022/03/23 02:03:48;;;;;;;9.48;4.72;;;;;;;3.45;85.11;102857.22;6255155;28;20053;-84
2022/03/23 02:06:52;;;;;;;12.98;6.53;;;;;;;3.39;86.03;102861.47;6264168;28;20131;-82
2022/03/23 02:09:54;;;;;;;12.88;5.13;;;;;;;3.39;85.81;102854.53;6284902;28;20086;-83
2022/03/23 02:12:55;;;;;;;11.68;5.03;;;;;;;3.38;86.00;102855.38;6286204;28;20048;-84
2022/03/23 02:15:57;;;;;;;11.32;4.72;;;;;;;3.34;86.68;102850.16;6274634;28;20053;-82
2022/03/23 02:18:58;;;;;;;12.68;5.38;;;;;;;3.34;86.44;102852.75;6279755;28;20048;-83
2022/03/23 02:22:01;;;;;;;9.07;5.00;;;;;;;3.31;86.74;102853.56;6290358;28;20053;-83
2022/03/23 02:25:03;;;;;;;12.23;5.30;;;;;;;3.24;88.19;102849.19;6299590;28;20187;-84
2022/03/23 02:28:05;;;;;;;9.93;5.70;;;;;;;3.13;88.49;102855.97;6296003;28;20060;-83
2022/03/23 02:31:07;;;;;;;10.45;5.25;;;;;;;3.11;87.96;102853.38;6288159;28;20384;-83
2022/03/23 02:34:09;;;;;;;9.93;5.28;;;;;;;3.13;87.97;102848.16;6299292;28;20087;-83
2022/03/23 02:37:12;;;;;;;11.65;5.65;;;;;;;3.10;88.32;102843.84;6298818;28;20041;-83
2022/03/23 02:40:13;;;;;;;13.40;5.50;;;;;;;3.12;88.22;102844.72;6290264;28;20048;-84
2022/03/23 02:43:15;;;;;;;11.93;5.43;;;;;;;3.05;88.95;102845.50;6281921;28;20052;-82
2022/03/23 02:46:18;;;;;;;9.93;4.70;;;;;;;2.97;89.11;102850.59;6281865;28;20052;-83
2022/03/23 02:49:20;;;;;;;9.82;4.53;;;;;;;2.92;89.20;102854.00;6273875;28;20053;-81
2022/03/23 02:52:23;;;;;;;10.18;5.45;;;;;;;2.84;90.61;102848.72;6281596;28;20671;-82
2022/03/23 03:02:18;;;;;;;17.05;6.40;;;;;;;2.75;89.05;102846.88;6272084;28;20057;-81
2022/03/23 03:05:19;;;;;;;13.73;6.45;;;;;;;2.73;88.74;102847.72;6281860;28;20041;-83
2022/03/23 03:11:42;;;;;;;10.20;4.93;;;;;;;2.63;90.16;102848.41;6297613;28;20064;-82
2022/03/23 03:14:44;;;;;;;8.80;5.15;;;;;;;2.58;91.33;102842.31;6298546;28;20140;-83
2022/03/23 03:17:47;;;;;;;13.07;5.88;;;;;;;2.61;90.86;102845.81;6298165;28;20052;-83
2022/03/23 03:20:48;;;;;;;18.23;5.78;;;;;;;2.60;91.00;102851.00;6297429;28;20132;-83
2022/03/23 03:23:51;;;;;;;10.45;5.07;;;;;;;2.57;90.74;102850.94;6298146;28;20044;-84
2022/03/23 03:26:53;;;;;;;10.90;4.80;;;;;;;2.56;91.79;102850.06;6297802;28;20048;-82
2022/03/23 03:29:54;;;;;;;12.63;5.50;;;;;;;2.53;91.09;102850.88;6297824;28;20048;-84
2022/03/23 03:32:56;;;;;;;12.25;5.38;;;;;;;2.52;90.99;102854.34;6292115;28;20049;-83
2022/03/23 03:35:58;;;;;;;9.80;5.43;;;;;;;2.45;91.39;102852.53;6273310;28;20103;-83
2022/03/23 03:39:01;;;;;;;12.13;4.45;;;;;;;2.46;90.67;102858.59;6272773;28;20052;-83
2022/03/23 03:42:03;;;;;;;15.20;4.65;;;;;;;2.44;90.33;102852.50;6272733;28;20492;-83
2022/03/23 03:45:06;;;;;;;10.65;5.13;;;;;;;2.39;90.81;102848.97;6273329;28;20052;-83
2022/03/23 03:48:07;;;;;;;14.82;5.50;;;;;;;2.33;91.17;102844.56;6272920;28;20049;-82
2022/03/23 03:51:10;;;;;;;12.85;5.20;;;;;;;2.37;90.93;102850.69;6271984;28;20420;-83
2022/03/23 03:54:43;;;;;;;11.75;5.57;;;;;;;2.33;91.87;102852.34;6272960;28;20056;-81
2022/03/23 03:57:44;;;;;;;12.25;5.13;;;;;;;2.33;92.26;102854.06;6272280;28;20056;-83
2022/03/23 04:00:46;;;;;;;12.82;4.50;;;;;;;2.28;91.96;102857.47;6272206;28;20536;-82
2022/03/23 04:03:47;;;;;;;10.50;5.00;;;;;;;2.22;92.21;102853.88;6274821;28;20305;-83
2022/03/23 04:06:48;;;;;;;14.38;5.80;;;;;;;2.16;92.68;102861.59;6288694;28;20419;-83
2022/03/23 04:09:51;;;;;;;10.20;5.25;;;;;;;2.11;92.38;102869.31;6289585;28;20511;-83
2022/03/23 04:12:53;;;;;;;11.43;5.75;;;;;;;2.07;91.81;102864.03;6283581;28;20049;-83
2022/03/23 04:15:55;;;;;;;9.85;4.72;;;;;;;2.05;93.87;102864.03;6280526;28;20037;-83
2022/03/23 04:18:56;;;;;;;9.25;5.35;;;;;;;2.02;93.13;102857.06;6272201;28;20067;-83
2022/03/23 04:21:58;;;;;;;11.30;5.40;;;;;;;2.03;92.39;102866.56;6271971;28;20064;-83
2022/03/23 04:25:00;;;;;;;15.13;5.78;;;;;;;1.97;92.00;102869.06;6272266;28;20045;-83
2022/03/23 04:28:02;;;;;;;10.05;5.05;;;;;;;1.96;92.30;102866.47;6272325;28;20045;-83
2022/03/23 04:31:04;;;;;;;14.98;5.55;;;;;;;1.95;92.86;102870.78;6271713;28;20053;-83
2022/03/23 04:34:05;;;;;;;12.35;5.70;;;;;;;1.88;93.45;102881.88;6272497;28;20072;-84
2022/03/23 04:37:07;;;;;;;13.60;5.85;;;;;;;1.83;93.48;102869.69;6271892;28;20049;-83
2022/03/23 04:40:11;;;;;;;14.23;5.55;;;;;;;1.83;94.06;102880.06;6271595;28;20057;-83
2022/03/23 04:43:13;;;;;;;10.60;5.57;;;;;;;1.82;94.17;102883.50;6271640;28;20053;-82
2022/03/23 04:46:14;;;;;;;17.00;7.35;;;;;;;1.81;94.04;102882.63;6272104;28;20485;-83
2022/03/23 04:49:16;;;;;;;8.95;5.65;;;;;;;1.74;94.29;102880.78;6272251;28;20508;-84
2022/03/23 04:52:18;;;;;;;13.40;5.95;;;;;;;1.75;93.28;102880.81;6270995;28;20045;-82
2022/03/23 04:55:21;;;;;;;10.35;5.45;;;;;;;1.71;93.47;102879.00;6289221;28;20438;-83
2022/03/23 04:58:24;;;;;;;8.50;5.30;;;;;;;1.75;93.71;102874.75;6275565;28;20041;-83
2022/03/23 05:01:25;;;;;;;13.02;5.20;;;;;;;1.72;92.29;102885.91;6268776;28;20056;-83
2022/03/23 05:04:29;;;;;;;9.73;5.55;;;;;;;1.67;92.41;102887.56;6271214;28;20519;-83
2022/03/23 05:07:30;;;;;;;8.00;4.35;;;;;;;1.64;92.92;102878.88;6271126;28;20440;-82
2022/03/23 05:10:33;;;;;;;13.95;5.03;;;;;;;1.67;92.66;102887.56;6270770;28;20056;-83
2022/03/23 05:13:35;;;;;;;10.32;5.00;;;;;;;1.68;92.30;102885.84;6270799;28;20405;-82
2022/03/23 05:16:37;;;;;;;13.73;6.30;;;;;;;1.68;92.39;102885.84;6270176;28;20508;-83
2022/03/23 05:19:39;;;;;;;11.45;5.60;;;;;;;1.61;93.23;102895.22;6269785;28;20130;-83
2022/03/23 05:22:41;;;;;;;10.27;4.93;;;;;;;1.61;92.82;102894.38;6270395;28;20416;-83
2022/03/23 05:25:44;;;;;;;10.07;4.43;;;;;;;1.59;92.77;102898.63;6275404;28;20050;-83
2022/03/23 05:28:45;;;;;;;14.40;6.70;;;;;;;1.54;93.63;102901.13;6276295;28;20409;-84
2022/03/23 05:31:47;;;;;;;11.68;4.78;;;;;;;1.53;95.07;102902.00;6276202;28;20041;-82
2022/03/23 05:34:50;;;;;;;11.95;5.78;;;;;;;1.55;94.28;102905.50;6275624;28;20053;-82
2022/03/23 05:37:51;;;;;;;10.68;4.65;;;;;;;1.50;96.97;102900.22;6275654;28;20408;-83
2022/03/23 05:40:54;;;;;;;10.65;5.72;;;;;;;1.55;96.52;102912.41;6275105;28;20049;-83
2022/03/23 05:43:57;;;;;;;14.65;5.22;;;;;;;1.54;96.39;102903.72;6276001;28;20052;-84
2022/03/23 05:46:58;;;;;;;9.48;5.32;;;;;;;1.52;97.17;102908.03;6277331;28;20053;-84
2022/03/23 05:50:00;;;;;;;10.15;5.90;;;;;;;1.55;97.37;102909.81;6276747;28;20053;-84
2022/03/23 05:53:03;;;;;;;13.23;5.50;;;;;;;1.57;97.21;102908.97;6276743;28;20053;-83
2022/03/23 05:56:16;;;;;;;11.13;4.53;;;;;;;1.59;96.80;102904.72;6276379;28;20520;-83
2022/03/23 05:59:17;;;;;;;19.10;5.70;;;;;;;1.57;97.88;102900.34;6276472;28;20052;-84
2022/03/23 06:02:19;;;;;;;16.33;6.13;;;;;;;1.59;98.47;102909.00;6275407;28;20056;-84
2022/03/23 06:05:20;;;;;;;14.85;5.63;;;;;;;1.64;98.31;102903.06;6252151;28;20052;-83
2022/03/23 06:08:21;;;;;;;14.60;6.03;;;;;;;1.67;98.33;102907.44;6255713;28;20060;-84
2022/03/23 06:11:24;;;;;;;11.23;5.13;;;;;;;1.70;98.69;102908.34;6275649;28;20231;-83
2022/03/23 06:14:25;;;;;;;11.85;5.70;;;;;;;1.73;99.35;102918.78;6276279;28;20049;-84
2022/03/23 06:17:27;;;;;;;15.90;6.20;;;;;;;1.78;100.00;102922.34;6276422;28;20053;-84
2022/03/23 06:20:29;;;;;;;11.52;5.68;;;;;;;1.79;100.00;102920.63;6275183;28;20057;-84
2022/03/23 06:23:32;;;;;;;11.20;5.32;;;;;;;1.87;100.00;102928.53;6276206;28;20040;-84
2022/03/23 06:26:35;;;;;;;14.68;5.82;;;;;;;1.97;98.56;102931.31;6278263;28;20045;-84
2022/03/23 06:29:44;;;;;;;11.23;5.20;;;;;;;2.08;96.76;102923.69;6278237;28;20053;-84
2022/03/23 06:32:45;;;;;;;14.57;6.20;;;;;;;2.20;95.20;102929.09;6277772;28;20053;-84
2022/03/23 06:35:47;;;;;;;10.52;5.45;;;;;;;2.25;94.57;102932.63;6277918;28;20049;-84
2022/03/23 06:38:50;;;;;;;13.52;5.80;;;;;;;2.31;93.93;102937.03;6277418;28;20049;-84
2022/03/23 06:41:57;;;;;;;11.25;4.55;;;;;;;2.38;93.75;102935.44;6277314;28;20056;-84
2022/03/23 06:44:58;;;;;;;15.50;7.25;;;;;;;2.43;93.52;102941.56;6277875;28;20055;-84
2022/03/23 06:47:59;;;;;;;11.05;6.15;;;;;;;2.49;93.20;102939.94;6275735;28;20045;-84
2022/03/23 06:51:01;;;;;;;7.20;4.10;;;;;;;2.56;91.28;102935.72;6275517;28;20045;-83
2022/03/23 06:54:02;;;;;;;8.82;4.78;;;;;;;2.65;90.20;102935.84;6276084;28;20044;-84
2022/03/23 06:57:05;;;;;;;10.80;4.93;;;;;;;2.77;89.11;102940.34;6275552;28;20053;-84
2022/03/23 07:00:13;;;;;;;11.57;4.25;;;;;;;2.83;86.79;102936.97;6275630;28;20060;-84
2022/03/23 07:03:14;;;;;;;9.38;5.07;;;;;;;2.90;86.92;102937.06;6275721;28;20137;-84
2022/03/23 07:06:16;;;;;;;14.02;5.60;;;;;;;3.01;87.20;102942.41;6275503;28;20067;-84
2022/03/23 07:09:33;;;;;;;17.60;6.20;;;;;;;3.11;86.21;102941.69;6276895;28;20076;-84
2022/03/23 07:12:35;;;;;;;14.82;6.18;;;;;;;3.20;86.36;102939.19;6274783;28;20049;-83
2022/03/23 07:15:37;;;;;;;10.68;4.68;;;;;;;3.34;86.53;102938.50;6275126;28;20067;-83
2022/03/23 07:18:38;;;;;;;16.80;6.13;;;;;;;3.47;84.54;102936.06;6274848;28;20057;-84
2022/03/23 07:21:40;;;;;;;15.15;5.80;;;;;;;3.56;83.01;102938.75;6262554;28;20049;-79
2022/03/23 07:24:41;;;;;;;11.10;5.18;;;;;;;3.65;83.98;102942.31;6248449;28;20053;-79
2022/03/23 07:27:44;;;;;;;12.27;5.60;;;;;;;3.73;82.97;102940.69;6248404;28;20116;-79
2022/03/23 07:30:46;;;;;;;13.65;5.82;;;;;;;3.80;82.22;102942.47;6247865;28;20409;-79
2022/03/23 07:33:47;;;;;;;12.38;5.55;;;;;;;3.87;80.13;102944.28;6248708;28;20486;-79
2022/03/23 07:36:48;;;;;;;9.70;4.78;;;;;;;3.96;78.06;102946.09;6248535;28;20091;-80
2022/03/23 07:39:50;;;;;;;14.93;4.75;;;;;;;4.10;76.40;102946.22;6248926;28;20045;-80
2022/03/23 07:42:52;;;;;;;11.98;4.72;;;;;;;4.21;76.16;102941.97;6248876;28;20057;-79
2022/03/23 07:45:54;;;;;;;10.13;5.10;;;;;;;4.28;76.65;102939.44;6248443;28;20050;-79
2022/03/23 07:48:55;;;;;;;9.88;5.20;;;;;;;4.39;75.78;102943.88;6248814;28;20052;-79
2022/03/23 07:51:57;;;;;;;10.30;4.80;;;;;;;4.46;76.25;102953.47;6258585;28;20056;-80
2022/03/23 07:55:00;;;;;;;13.25;5.47;;;;;;;4.57;74.44;102951.81;6288783;28;20083;-80
2022/03/23 07:58:02;;;;;;;14.15;6.03;;;;;;;4.65;73.82;102939.72;6276032;28;20075;-80
2022/03/23 08:01:04;;;;;;;13.60;5.85;;;;;;;4.76;72.87;102947.59;6273755;28;20562;-80
2022/03/23 08:04:06;;;;;;;15.52;5.97;;;;;;;4.83;73.59;102947.66;6273758;28;20064;-79
2022/03/23 08:07:07;;;;;;;11.43;5.55;;;;;;;4.98;71.10;102944.25;6273663;28;20057;-80
2022/03/23 08:10:09;;;;;;;16.70;6.55;;;;;;;5.19;68.71;102946.09;6273177;28;20048;-79
2022/03/23 08:13:13;;;;;;;10.88;5.63;;;;;;;5.30;69.44;102944.38;6270975;28;20056;-80
2022/03/23 08:16:18;;;;;;;11.18;5.80;;;;;;;5.37;71.19;102947.91;6283661;28;20557;-79
2022/03/23 08:19:20;;;;;;;16.75;7.07;;;;;;;5.43;71.01;102947.06;6289285;28;20044;-79
2022/03/23 08:22:21;;;;;;;13.40;5.88;;;;;;;5.53;71.02;102948.81;6272031;28;20050;-79
2022/03/23 08:25:23;;;;;;;13.18;5.78;;;;;;;5.66;69.69;102949.72;6281322;28;20055;-79
2022/03/23 08:28:26;;;;;;;14.02;5.57;;;;;;;5.81;68.81;102948.03;6272502;28;20068;-80
2022/03/23 08:31:28;;;;;;;13.52;5.05;;;;;;;5.94;68.07;102951.53;6280286;28;20460;-79
2022/03/23 08:34:29;;;;;;;12.35;5.63;;;;;;;6.06;67.19;102943.75;6270310;28;20147;-81
2022/03/23 08:37:32;;;;;;;13.35;5.90;;;;;;;6.21;67.68;102934.16;6293576;28;20052;-80
2022/03/23 08:40:34;;;;;;;16.80;5.93;;;;;;;6.29;66.57;102946.34;6281240;28;20131;-80
2022/03/23 08:43:36;;;;;;;14.55;6.10;;;;;;;6.41;66.19;102936.78;6291028;28;20083;-79
2022/03/23 08:46:38;;;;;;;15.77;6.28;;;;;;;6.51;67.50;102939.38;6295488;28;20052;-78
2022/03/23 08:49:39;;;;;;;12.05;5.13;;;;;;;6.63;66.40;102945.44;6280964;28;20049;-79
2022/03/23 08:52:42;;;;;;;13.35;5.13;;;;;;;6.77;65.65;102941.97;6272254;28;20056;-79
2022/03/23 08:55:43;;;;;;;13.02;5.75;;;;;;;6.90;65.51;102948.00;6275978;28;20090;-78
2022/03/23 08:58:49;;;;;;;11.15;5.60;;;;;;;7.09;62.94;102947.09;6287631;28;20420;-79
2022/03/23 09:01:50;;;;;;;13.75;6.05;;;;;;;7.30;63.66;102953.09;6276433;28;20096;-78
2022/03/23 09:04:51;;;;;;;11.63;5.93;;;;;;;7.44;62.88;102951.28;6277737;28;20055;-79
2022/03/23 09:07:53;;;;;;;15.35;6.50;;;;;;;7.51;60.56;102946.91;6276902;28;20065;-79
2022/03/23 09:10:54;;;;;;;12.40;5.70;;;;;;;7.70;61.74;102953.78;6276897;28;20051;-78
2022/03/23 09:13:57;;;;;;;13.43;6.50;;;;;;;7.82;60.91;102953.72;6277367;28;20049;-79
2022/03/23 09:16:58;;;;;;;10.43;5.30;;;;;;;8.00;59.67;102944.00;6276301;28;20057;-79
2022/03/23 09:20:01;;;;;;;12.80;5.95;;;;;;;8.11;58.54;102942.16;6276833;28;20069;-79
2022/03/23 09:23:03;;;;;;;13.25;6.07;;;;;;;8.31;57.49;102931.50;6277302;28;20052;-79
2022/03/23 09:26:05;;;;;;;12.90;6.03;;;;;;;8.49;55.70;102931.38;6277090;28;20052;-79
2022/03/23 09:29:08;;;;;;;12.57;5.90;;;;;;;8.60;55.86;102921.66;6278104;28;20056;-80
2022/03/23 09:32:12;;;;;;;12.63;5.88;;;;;;;8.69;54.52;102931.19;6276680;28;20125;-80
2022/03/23 09:35:14;;;;;;;16.98;6.40;;;;;;;8.85;53.89;102924.88;6275135;28;20049;-80
2022/03/23 09:38:16;;;;;;;12.98;5.47;;;;;;;8.96;53.21;102927.41;6275957;28;20419;-79
2022/03/23 09:41:17;;;;;;;10.57;5.22;;;;;;;9.07;53.01;102928.13;6263855;28;20064;-80
2022/03/23 09:44:24;;;;;;;10.65;5.65;;;;;;;9.25;51.47;102920.91;6259356;28;20073;-79
2022/03/23 09:47:25;;;;;;;12.05;6.10;;;;;;;9.37;48.95;102918.13;6276413;28;20110;-79
2022/03/23 09:50:28;;;;;;;13.15;6.43;;;;;;;9.53;46.87;102917.03;6275569;28;20500;-79
2022/03/23 09:53:30;;;;;;;14.30;5.32;;;;;;;9.64;45.84;102914.25;6276395;28;20052;-79
2022/03/23 09:56:31;;;;;;;13.20;5.20;;;;;;;9.84;45.15;102920.06;6276152;28;20416;-79
2022/03/23 09:59:35;;;;;;;12.70;5.32;;;;;;;10.07;44.64;102913.59;6275930;28;20048;-80
2022/03/23 10:03:21;;;;;;;10.70;5.03;;;;;;;10.20;45.13;102915.13;6275948;28;20052;-79
2022/03/23 10:06:53;;;;;;;12.40;6.68;;;;;;;10.31;43.95;102904.44;6228958;28;20049;-79
2022/03/23 10:10:24;;;;;;;11.02;5.72;;;;;;;10.40;42.86;102904.28;6275439;28;20045;-80
2022/03/23 10:14:41;;;;;;;10.13;4.68;;;;;;;10.54;40.14;102898.81;6275600;28;20045;-80
2022/03/23 10:18:06;;;;;;;10.45;5.22;;;;;;;11.00;39.11;102906.66;6275966;28;20416;-79
2022/03/23 10:21:07;;;;;;;13.68;5.72;;;;;;;11.23;39.98;102898.28;6275124;28;20060;-80
2022/03/23 10:24:32;;;;;;;11.02;4.78;;;;;;;11.37;36.69;102901.47;6276435;28;20132;-80
2022/03/23 10:27:33;;;;;;;8.95;5.32;;;;;;;11.60;36.35;102900.09;6275046;28;20114;-79
2022/03/23 10:30:36;;;;;;;13.95;5.63;;;;;;;11.63;35.40;102907.94;6276648;28;20049;-80
2022/03/23 10:33:39;;;;;;;8.15;5.45;;;;;;;11.80;33.76;102896.97;6292891;28;20048;-79
2022/03/23 10:36:51;;;;;;;10.90;4.90;;;;;;;12.10;35.37;102903.31;6300488;28;20492;-79
2022/03/23 10:39:54;;;;;;;20.73;7.25;;;;;;;12.19;34.81;102903.06;6291231;28;20098;-79
2022/03/23 10:42:55;;;;;;;10.07;5.32;;;;;;;12.24;33.79;102893.28;6299219;28;20070;-80
2022/03/23 10:46:07;;;;;;;9.32;5.03;;;;;;;12.35;34.83;102892.97;6276587;28;20049;-79
2022/03/23 10:49:11;;;;;;;11.82;6.22;;;;;;;12.63;30.86;102887.84;6282489;28;20041;-79
2022/03/23 10:52:15;;;;;;;11.77;5.50;;;;;;;12.64;32.04;102895.72;6274887;28;20053;-78
2022/03/23 10:55:17;;;;;;;9.88;4.93;;;;;;;12.74;31.99;102877.84;6276352;28;20049;-78
2022/03/23 10:58:21;;;;;;;11.70;5.35;;;;;;;12.90;33.53;102883.56;6275475;28;20123;-79
2022/03/23 11:01:23;;;;;;;7.30;3.90;;;;;;;12.95;32.11;102876.38;6273802;28;20045;-79
2022/03/23 11:04:28;;;;;;;9.88;4.95;;;;;;;13.17;31.39;102876.59;6274994;28;20052;-80
2022/03/23 11:07:35;;;;;;;10.85;5.72;;;;;;;13.48;30.09;102883.63;6274635;28;20214;-79
2022/03/23 11:17:28;;;;;;;9.88;5.35;;;;;;;13.89;30.45;102861.13;6273726;28;20076;-79
2022/03/23 11:20:41;;;;;;;7.93;4.70;;;;;;;14.03;30.03;102863.31;6273815;28;20136;-79
2022/03/23 11:23:43;;;;;;;10.45;5.47;;;;;;;14.23;29.56;102862.66;6274162;28;20709;-78
2022/03/23 11:26:44;;;;;;;12.27;5.43;;;;;;;14.60;29.73;102868.38;6274181;28;20053;-79
2022/03/23 11:29:47;;;;;;;9.85;5.90;;;;;;;14.98;27.66;102863.44;6273206;28;20045;-80
2022/03/23 11:32:48;;;;;;;10.10;5.60;;;;;;;15.05;27.06;102866.75;6273314;28;20047;-79
2022/03/23 11:35:52;;;;;;;11.02;5.88;;;;;;;15.25;28.57;102865.97;6273365;28;20048;-80
2022/03/23 11:38:53;;;;;;;8.65;5.15;;;;;;;15.40;27.65;102858.28;6272975;28;20048;-79
2022/03/23 11:41:55;;;;;;;10.35;5.47;;;;;;;15.78;28.37;102857.69;6289144;28;20419;-80
2022/03/23 11:45:00;;;;;;;10.02;5.22;;;;;;;16.21;25.77;102859.38;6281986;28;20048;-80
2022/03/23 11:48:15;;;;;;;11.93;6.07;;;;;;;16.48;26.13;102851.97;6273612;28;20076;-80
2022/03/23 11:51:29;;;;;;;10.10;5.97;;;;;;;16.45;25.98;102858.31;6272198;28;20130;-81
2022/03/23 11:58:18;;;;;;;16.00;6.25;;;;;;;16.73;27.31;102849.13;6289151;28;20424;-81
2022/03/23 12:01:20;;;;;;;10.48;5.68;;;;;;;16.99;25.57;102843.47;6249503;28;20084;-82
2022/03/23 12:04:23;;;;;;;9.40;5.55;;;;;;;17.13;25.86;102834.88;6266543;28;20136;-82
2022/03/23 12:07:46;;;;;;;9.10;5.03;;;;;;;17.22;24.23;102828.25;6298193;28;20055;-81
2022/03/23 12:10:48;;;;;;;11.75;6.38;;;;;;;17.31;24.81;102821.63;6297297;28;20079;-83
2022/03/23 12:13:56;;;;;;;9.93;5.68;;;;;;;17.53;24.97;102821.41;6297809;28;20057;-81
2022/03/23 12:17:07;;;;;;;9.27;5.30;;;;;;;17.86;26.02;102811.78;6292550;28;20522;-75
2022/03/23 12:20:12;;;;;;;8.43;5.22;;;;;;;18.06;23.57;102810.75;6272143;28;20041;-81
2022/03/23 12:23:33;;;;;;;9.45;5.68;;;;;;;18.16;24.43;102809.31;6272575;28;20140;-81
2022/03/23 12:26:38;;;;;;;11.40;6.10;;;;;;;17.96;23.66;102804.19;6273163;28;20059;-79
2022/03/23 12:29:44;;;;;;;10.98;6.55;;;;;;;18.16;23.82;102803.16;6273012;28;20041;-84
2022/03/23 12:32:46;;;;;;;9.40;5.05;;;;;;;18.32;23.87;102795.22;6274871;28;20057;-82
2022/03/23 12:35:48;;;;;;;11.85;5.72;;;;;;;18.68;22.26;102803.88;6281157;28;20408;-82
2022/03/23 12:38:59;;;;;;;9.75;5.20;;;;;;;18.78;22.92;102793.63;6281099;28;20076;-83
2022/03/23 12:42:16;;;;;;;8.60;5.20;;;;;;;18.71;22.77;102794.88;6280911;28;20094;-85
2022/03/23 12:45:22;;;;;;;9.80;5.53;;;;;;;18.66;22.53;102797.78;6275084;28;20045;-84
2022/03/23 12:58:36;;;;;;;9.75;5.72;;;;;;;19.04;22.19;102783.31;6281534;28;20049;-82
2022/03/23 13:01:39;;;;;;;10.68;5.78;;;;;;;19.25;22.15;102779.41;6282829;28;20064;-84
2022/03/23 13:04:52;;;;;;;10.82;5.55;;;;;;;19.33;23.01;102770.97;6284156;28;20052;-84
2022/03/23 13:07:53;;;;;;;9.20;6.00;;;;;;;19.43;22.21;102777.47;6294087;28;20053;-82
2022/03/23 13:10:58;;;;;;;7.78;4.95;;;;;;;19.43;22.63;102766.81;6305182;28;20506;-84
2022/03/23 13:14:01;;;;;;;9.52;5.70;;;;;;;19.25;21.15;102769.59;6306416;28;20554;-85
2022/03/23 13:17:03;;;;;;;9.65;5.50;;;;;;;19.42;23.34;102765.97;6305552;28;20059;-82
2022/03/23 13:20:08;;;;;;;9.52;5.43;;;;;;;19.56;22.66;102769.63;6305460;28;20048;-84
2022/03/23 13:23:14;;;;;;;6.95;4.85;;;;;;;19.52;21.57;102758.28;6298386;28;20073;-82
2022/03/23 13:26:18;;;;;;;7.72;5.13;;;;;;;19.69;22.55;102762.66;6305089;28;20051;-84
2022/03/23 13:29:25;;;;;;;9.55;4.65;;;;;;;19.92;22.43;102750.59;6305485;28;20048;-83
2022/03/23 13:32:31;;;;;;;12.20;5.70;;;;;;;20.02;21.71;102755.25;6305333;28;20075;-82
2022/03/23 13:35:42;;;;;;;11.63;6.05;;;;;;;20.10;21.51;102746.78;6305088;28;20063;-80
2022/03/23 13:38:45;;;;;;;11.40;6.57;;;;;;;20.02;20.84;102746.41;6304881;28;20145;-81
2022/03/23 13:45:09;;;;;;;9.02;5.70;;;;;;;19.99;21.21;102747.47;6276608;28;20087;-83
2022/03/23 13:48:10;;;;;;;7.75;4.68;;;;;;;19.88;20.96;102738.38;6276129;28;20056;-83
2022/03/23 13:51:12;;;;;;;9.57;5.05;;;;;;;19.86;20.03;102741.16;6275580;28;20045;-82
2022/03/23 13:54:15;;;;;;;12.23;5.72;;;;;;;19.74;19.88;102734.72;6276110;28;20052;-80
2022/03/23 13:57:18;;;;;;;8.90;5.40;;;;;;;19.56;20.68;102741.16;6297019;28;20052;-81
2022/03/23 14:00:24;;;;;;;9.20;5.22;;;;;;;19.75;20.87;102735.59;6300119;28;20049;-80
2022/03/23 14:03:31;;;;;;;10.38;5.88;;;;;;;19.87;21.47;102739.34;6301024;28;20133;-79
2022/03/23 14:06:42;;;;;;;9.27;5.22;;;;;;;20.07;21.06;102730.09;6300189;28;20056;-82
2022/03/23 14:09:44;;;;;;;9.95;5.60;;;;;;;20.04;19.64;102720.50;6299973;28;20419;-82
2022/03/23 14:12:51;;;;;;;8.90;5.47;;;;;;;20.08;20.56;102732.69;6299883;28;20060;-83
2022/03/23 14:15:54;;;;;;;8.77;5.35;;;;;;;19.85;19.43;102720.75;6300916;28;20070;-83
2022/03/23 14:18:56;;;;;;;10.02;4.93;;;;;;;19.89;21.03;102719.59;6299676;28;20048;-80
2022/03/23 14:21:59;;;;;;;9.35;5.55;;;;;;;19.85;20.53;102720.75;6282728;28;20056;-81
2022/03/23 14:25:02;;;;;;;10.55;5.72;;;;;;;19.92;21.01;102719.41;6274388;28;20112;-80
2022/03/23 14:28:16;;;;;;;11.68;5.45;;;;;;;20.12;21.50;102712.88;6274945;28;20057;-80
2022/03/23 14:31:21;;;;;;;12.73;5.45;;;;;;;20.22;21.20;102708.66;6274480;28;20519;-82
2022/03/23 14:34:27;;;;;;;8.50;5.30;;;;;;;20.11;21.40;102703.13;6275192;28;20516;-81
2022/03/23 14:37:34;;;;;;;7.32;4.90;;;;;;;20.23;20.28;102699.69;6274939;28;20044;-81
2022/03/23 14:40:37;;;;;;;10.32;5.72;;;;;;;20.08;21.15;102694.47;6282546;28;20483;-83
2022/03/23 14:43:41;;;;;;;10.55;4.80;;;;;;;19.85;20.87;102696.75;6280884;28;20042;-81
2022/03/23 14:46:43;;;;;;;10.82;5.50;;;;;;;19.72;21.26;102691.28;6279778;28;20048;-84
2022/03/23 14:49:46;;;;;;;9.13;5.53;;;;;;;19.71;19.95;102692.25;6274288;28;20045;-81